Time;durP1;ratioP1;P1;durP2;ratioP2;P2;SDS_P1;SDS_P2;PMS_P1;PMS_P2;Temp;Humidity;BMP_temperature;BMP_pressure;BME280_temperature;BME280_humidity;BME280_pressure;Samples;Min_cycle;Max_cycle;Signal;HPM_P1;HPM_P2
2021/12/14 00:02:00;;;;;;;;;;;;;;;;;;;;;
2021/12/14 00:05:14;;;;;;;;;;;;;;;22.78;35.31;101522.67;99623;1378;74215;-83
2021/12/14 00:08:25;;;;;;;;;;;;;;;;;;;;;
2021/12/14 00:17:55;;;;;;;;;;;;;;;22.80;35.15;101530.08;99578;1382;72903;-83
2021/12/14 00:20:51;;;;;;;;;;;;;;;;;;;;;
2021/12/14 00:27:05;;;;;;;;;;;;;;;22.80;35.09;101534.17;99374;1384;61385;-82
2021/12/14 00:29:50;;;;;;;;;;;;;;;22.79;35.17;101534.76;99364;1381;74078;-83
2021/12/14 00:33:07;;;;;;;;;;;;;;;;;;;;;
2021/12/14 00:36:09;;;;;;;;;;;;;;;22.80;35.18;101537.79;99388;1384;61775;-83
2021/12/14 00:39:01;;;;;;;;;;;;;;;22.80;35.10;101537.23;99384;1381;61480;-83
2021/12/14 00:41:47;;;;;;;;;;;;;;;22.80;35.18;101540.09;99068;1390;72933;-83
2021/12/14 00:44:37;;;;;;;;;;;;;;;22.80;35.21;101543.30;99091;1390;73629;-84
2021/12/14 00:47:25;;;;;;;;;;;;;;;22.80;35.21;101543.86;99117;1386;61665;-83
2021/12/14 00:50:33;;;;;;;;;;;;;;;22.80;35.15;101542.83;99141;1389;61295;-83
2021/12/14 00:53:28;;;;;;;;;;;;;;;22.80;34.97;101545.49;99239;1389;73888;-83
2021/12/14 00:56:14;;;;;;;;;;;;;;;22.79;35.09;101543.39;99260;1389;75039;-83
2021/12/14 00:58:53;;;;;;;;;;;;;;;;;;;;;
2021/12/14 01:02:15;;;;;;;;;;;;;;;;;;;;;
2021/12/14 01:05:11;;;;;;;;;;;;;;;22.80;34.98;101546.05;100121;1371;71487;-82
2021/12/14 01:08:10;;;;;;;;;;;;;;;;;;;;;
2021/12/14 01:11:16;;;;;;;;;;;;;;;22.80;34.98;101542.42;100544;1370;63282;-83
2021/12/14 01:13:55;;;;;;;;;;;;;;;22.80;35.06;101542.98;100594;1372;61259;-83
2021/12/14 01:17:55;;;;;;;;;;;;;;;22.80;35.19;101548.36;100639;1365;71532;-83
2021/12/14 01:19:55;;;;;;;;;;;;;;;22.80;35.01;101542.05;101094;1366;75850;-83
2021/12/14 01:25:56;;;;;;;;;;;;;;;;;;;;;
2021/12/14 01:28:35;;;;;;;;;;;;;;;22.81;34.97;101547.95;100615;1372;73901;-83
2021/12/14 01:32:03;;;;;;;;;;;;;;;22.80;34.98;101547.45;101056;1365;72623;-84
2021/12/14 01:35:13;;;;;;;;;;;;;;;22.80;35.03;101548.56;100639;1370;61517;-84
2021/12/14 01:41:15;;;;;;;;;;;;;;;;;;;;;
2021/12/14 01:44:06;;;;;;;;;;;;;;;22.80;34.85;101555.69;101252;1367;75719;-84
2021/12/14 01:46:44;;;;;;;;;;;;;;;22.81;34.79;101557.96;100332;1374;61254;-84
2021/12/14 01:49:56;;;;;;;;;;;;;;;;;;;;;
2021/12/14 01:53:06;;;;;;;;;;;;;;;22.81;34.64;101560.13;99891;1375;73982;-84
2021/12/14 01:55:53;;;;;;;;;;;;;;;22.81;34.74;101561.91;99886;1380;74868;-84
2021/12/14 01:58:36;;;;;;;;;;;;;;;22.82;34.63;101563.88;99573;1384;61410;-84
2021/12/14 02:04:29;;;;;;;;;;;;;;;22.80;34.65;101559.84;99141;1390;72833;-84
2021/12/14 02:07:23;;;;;;;;;;;;;;;22.80;34.64;101561.81;99271;1388;75710;-83
2021/12/14 02:10:09;;;;;;;;;;;;;;;22.80;34.74;101563.96;99362;1386;61297;-83
2021/12/14 02:13:21;;;;;;;;;;;;;;;22.80;34.64;101566.67;99739;1378;61369;-83
2021/12/14 02:16:15;;;;;;;;;;;;;;;22.80;34.50;101567.17;99355;1385;74041;-83
2021/12/14 02:19:09;;;;;;;;;;;;;;;22.80;34.54;101573.29;99054;1392;75368;-83
2021/12/14 02:22:21;;;;;;;;;;;;;;;22.81;34.62;101573.96;98603;1400;61742;-83
2021/12/14 02:25:20;;;;;;;;;;;;;;;22.81;34.61;101580.23;98685;1397;61311;-83
2021/12/14 02:28:27;;;;;;;;;;;;;;;;;;;;;
2021/12/14 02:31:16;;;;;;;;;;;;;;;22.81;34.71;101581.09;99068;1391;74909;-84
2021/12/14 02:34:02;;;;;;;;;;;;;;;22.81;34.59;101585.77;99052;1386;61400;-83
2021/12/14 02:36:46;;;;;;;;;;;;;;;22.81;34.45;101583.10;99442;1377;61361;-83
2021/12/14 02:42:55;;;;;;;;;;;;;;;22.81;34.56;101580.80;99332;1385;76316;-82
2021/12/14 02:45:54;;;;;;;;;;;;;;;;;;;;;
2021/12/14 02:49:03;;;;;;;;;;;;;;;22.81;34.55;101580.02;99427;1385;61345;-83
2021/12/14 02:51:52;;;;;;;;;;;;;;;22.81;34.49;101577.17;99510;1377;73906;-83
2021/12/14 02:54:40;;;;;;;;;;;;;;;22.81;34.35;101580.75;99358;1384;74710;-84
2021/12/14 02:57:18;;;;;;;;;;;;;;;22.81;34.32;101581.27;99851;1375;61326;-84
2021/12/14 03:00:16;;;;;;;;;;;;;;;22.81;34.45;101581.09;100269;1374;61450;-83
2021/12/14 03:02:49;;;;;;;;;;;;;;;22.81;34.48;101583.61;100556;1371;73892;-83
2021/12/14 03:05:49;;;;;;;;;;;;;;;22.81;34.48;101585.63;100414;1371;76334;-83
2021/12/14 03:08:46;;;;;;;;;;;;;;;22.81;34.36;101586.34;100564;1371;62159;-83
2021/12/14 03:12:05;;;;;;;;;;;;;;;;;;;;;
2021/12/14 03:14:56;;;;;;;;;;;;;;;;;;;;;
2021/12/14 03:17:44;;;;;;;;;;;;;;;;;;;;;
2021/12/14 03:20:24;;;;;;;;;;;;;;;22.81;34.35;101589.41;100414;1372;61403;-84
2021/12/14 03:23:33;;;;;;;;;;;;;;;;;;;;;
2021/12/14 03:26:34;;;;;;;;;;;;;;;22.81;34.20;101593.15;100006;1379;73212;-84
2021/12/14 03:29:24;;;;;;;;;;;;;;;22.81;34.29;101593.35;99989;1372;74681;-84
2021/12/14 03:32:17;;;;;;;;;;;;;;;;;;;;;
2021/12/14 03:35:08;;;;;;;;;;;;;;;22.81;34.24;101597.11;100093;1375;61800;-81
2021/12/14 03:37:57;;;;;;;;;;;;;;;22.80;34.35;101595.52;100068;1375;72991;-82
2021/12/14 03:40:48;;;;;;;;;;;;;;;22.81;34.27;101595.83;99745;1378;75896;-81
2021/12/14 03:43:37;;;;;;;;;;;;;;;22.82;34.11;101599.55;99783;1378;61286;-81
2021/12/14 03:46:32;;;;;;;;;;;;;;;22.82;34.30;101600.98;99966;1378;61223;-83
2021/12/14 03:49:35;;;;;;;;;;;;;;;22.83;34.16;101606.31;100025;1371;72141;-83
2021/12/14 03:52:52;;;;;;;;;;;;;;;;;;;;;
2021/12/14 03:55:50;;;;;;;;;;;;;;;;;;;;;
2021/12/14 03:58:40;;;;;;;;;;;;;;;;;;;;;
2021/12/14 04:01:47;;;;;;;;;;;;;;;22.83;34.30;101601.83;99306;1386;72703;-83
2021/12/14 04:04:51;;;;;;;;;;;;;;;;;;;;;
2021/12/14 04:07:37;;;;;;;;;;;;;;;22.83;34.07;101601.81;99264;1381;61214;-82
2021/12/14 04:10:43;;;;;;;;;;;;;;;22.83;34.20;101600.95;99270;1380;59304;-84
2021/12/14 04:13:39;;;;;;;;;;;;;;;22.82;34.24;101607.09;99130;1390;71901;-83
2021/12/14 04:17:05;;;;;;;;;;;;;;;;;;;;;
2021/12/14 04:19:50;;;;;;;;;;;;;;;;;;;;;
2021/12/14 04:22:56;;;;;;;;;;;;;;;22.81;34.08;101616.33;99154;1387;61299;-84
2021/12/14 04:25:28;;;;;;;;;;;;;;;22.79;33.88;101621.46;99388;1381;74043;-83
2021/12/14 04:28:26;;;;;;;;;;;;;;;22.78;34.03;101620.80;99239;1387;73574;-84
2021/12/14 04:31:32;;;;;;;;;;;;;;;22.76;34.15;101620.55;99674;1377;61451;-82
2021/12/14 04:34:22;;;;;;;;;;;;;;;22.74;34.06;101625.54;99723;1380;61260;-82
2021/12/14 04:36:58;;;;;;;;;;;;;;;22.72;33.90;101630.71;100408;1372;72871;-83
2021/12/14 04:53:18;;;;;;;;;;;;;;;22.10;34.08;101649.66;101457;1358;74889;-82
2021/12/14 04:56:27;;;;;;;;;;;;;;;22.00;34.30;101653.55;100966;1363;61818;-83
2021/12/14 04:59:35;;;;;;;;;;;;;;;;;;;;;
2021/12/14 05:02:30;;;;;;;;;;;;;;;21.84;34.15;101659.12;100220;1375;72912;-83
2021/12/14 05:05:46;;;;;;;;;;;;;;;21.80;33.86;101662.30;99979;1372;73511;-83
2021/12/14 05:11:29;;;;;;;;;;;;;;;21.76;33.82;101664.11;99666;1382;61302;-82
2021/12/14 05:14:30;;;;;;;;;;;;;;;21.75;33.60;101664.00;99471;1379;74387;-82
2021/12/14 05:17:30;;;;;;;;;;;;;;;;;;;;;
2021/12/14 05:20:22;;;;;;;;;;;;;;;21.70;33.47;101669.29;99304;1386;61423;-83
2021/12/14 05:23:04;;;;;;;;;;;;;;;21.67;33.30;101673.59;99372;1379;61603;-83
2021/12/14 05:26:18;;;;;;;;;;;;;;;21.63;32.98;101674.36;99315;1380;72598;-84
2021/12/14 05:29:12;;;;;;;;;;;;;;;;;;;;;
2021/12/14 05:31:58;;;;;;;;;;;;;;;21.44;32.67;101677.80;98739;1389;61361;-81
2021/12/14 05:34:24;;;;;;;;;;;;;;;21.37;32.51;101680.90;98804;1385;61231;-82
2021/12/14 05:36:59;;;;;;;;;;;;;;;21.30;32.38;101683.65;98846;1381;74382;-81
2021/12/14 05:39:57;;;;;;;;;;;;;;;21.21;32.14;101682.70;99052;1377;76132;-82
2021/12/14 05:45:09;;;;;;;;;;;;;;;21.17;31.97;101691.88;99535;1374;61457;-81
2021/12/14 05:47:40;;;;;;;;;;;;;;;21.17;31.94;101693.35;99632;1367;72865;-81
2021/12/14 05:50:13;;;;;;;;;;;;;;;21.16;32.01;101695.55;100138;1362;75562;-81
2021/12/14 05:52:39;;;;;;;;;;;;;;;21.12;31.93;101695.23;100739;1354;61413;-81
2021/12/14 05:55:05;;;;;;;;;;;;;;;21.07;31.88;101698.02;101926;1358;59672;-81
2021/12/14 05:57:31;;;;;;;;;;;;;;;21.03;32.02;101701.81;101748;1353;59379;-81
2021/12/14 06:00:00;;;;;;;;;;;;;;;21.05;32.08;101705.66;100277;1356;61467;-82
2021/12/14 06:02:28;;;;;;;;;;;;;;;20.99;32.03;101700.79;100073;1356;61234;-81
2021/12/14 06:05:20;;;;;;;;;;;;;;;20.87;31.91;101703.98;100294;1358;61353;-81
2021/12/14 06:07:46;;;;;;;;;;;;;;;20.56;31.34;101707.59;100360;1356;72930;-82
2021/12/14 06:10:12;;;;;;;;;;;;;;;20.20;31.41;101707.04;100340;1358;61439;-82
2021/12/14 06:12:38;;;;;;;;;;;;;;;19.94;31.49;101705.20;100493;1358;61442;-81
2021/12/14 06:15:06;;;;;;;;;;;;;;;19.87;31.18;101706.48;100519;1356;61382;-81
2021/12/14 06:17:33;;;;;;;;;;;;;;;19.77;31.26;101710.15;101032;1356;59678;-80
2021/12/14 06:20:05;;;;;;;;;;;;;;;19.79;31.03;101703.45;100453;1358;61388;-81
2021/12/14 06:22:31;;;;;;;;;;;;;;;19.94;31.19;101703.41;102034;1357;61603;-80
2021/12/14 06:24:58;;;;;;;;;;;;;;;20.09;31.18;101703.90;101038;1360;61526;-80
2021/12/14 06:27:24;;;;;;;;;;;;;;;20.23;31.29;101707.98;100738;1356;61483;-80
2021/12/14 06:29:49;;;;;;;;;;;;;;;20.36;31.12;101707.27;100797;1354;61394;-80
2021/12/14 06:32:19;;;;;;;;;;;;;;;20.51;31.30;101704.33;100792;1357;61839;-81
2021/12/14 06:34:48;;;;;;;;;;;;;;;20.64;31.30;101705.21;100745;1356;61222;-81
2021/12/14 06:40:22;;;;;;;;;;;;;;;20.93;31.16;101705.45;100549;1360;75065;-80
2021/12/14 06:42:49;;;;;;;;;;;;;;;21.02;31.14;101708.15;100654;1359;61255;-80
2021/12/14 06:45:19;;;;;;;;;;;;;;;21.11;31.16;101712.09;101469;1363;60424;-80
2021/12/14 06:47:45;;;;;;;;;;;;;;;21.19;31.23;101709.72;100827;1354;73801;-80
2021/12/14 06:50:16;;;;;;;;;;;;;;;21.26;31.13;101712.52;100827;1356;61287;-79
2021/12/14 06:52:42;;;;;;;;;;;;;;;21.34;31.23;101712.74;100841;1357;61163;-82
2021/12/14 06:55:20;;;;;;;;;;;;;;;21.39;31.04;101708.52;100703;1354;61808;-81
2021/12/14 06:57:45;;;;;;;;;;;;;;;21.44;31.17;101709.71;100997;1352;73016;-81
2021/12/14 07:00:11;;;;;;;;;;;;;;;21.44;31.13;101715.94;100805;1356;61335;-80
2021/12/14 07:02:37;;;;;;;;;;;;;;;21.42;31.16;101717.67;100513;1354;61363;-81
2021/12/14 07:05:04;;;;;;;;;;;;;;;21.40;31.08;101722.09;100704;1356;61991;-81
2021/12/14 07:07:30;;;;;;;;;;;;;;;21.28;31.32;101721.33;100546;1356;61409;-80
2021/12/14 07:09:56;;;;;;;;;;;;;;;21.26;31.39;101727.15;100290;1356;417550;-79
2021/12/14 07:12:31;;;;;;;;;;;;;;;21.30;31.63;101725.73;100600;1356;61393;-80
2021/12/14 07:15:17;;;;;;;;;;;;;;;21.35;31.65;101727.36;100706;1356;61775;-80
2021/12/14 07:17:48;;;;;;;;;;;;;;;21.43;31.54;101733.92;100442;1357;72649;-79
2021/12/14 07:20:16;;;;;;;;;;;;;;;21.49;31.60;101735.70;100879;1356;74004;-79
2021/12/14 07:23:02;;;;;;;;;;;;;;;21.57;31.55;101734.75;100888;1357;61359;-79
2021/12/14 07:25:48;;;;;;;;;;;;;;;21.64;31.74;101736.34;100631;1360;60466;-80
2021/12/14 07:28:41;;;;;;;;;;;;;;;21.70;31.74;101738.63;100718;1360;72813;-80
2021/12/14 07:31:12;;;;;;;;;;;;;;;21.77;31.77;101737.73;99879;1365;74690;-80
2021/12/14 07:33:42;;;;;;;;;;;;;;;21.82;31.82;101737.39;99737;1365;61524;-79
2021/12/14 07:36:09;;;;;;;;;;;;;;;21.87;32.03;101737.63;99932;1365;61391;-79
2021/12/14 07:38:34;;;;;;;;;;;;;;;21.91;32.15;101732.71;100117;1365;61377;-80
2021/12/14 07:41:05;;;;;;;;;;;;;;;21.96;32.10;101734.58;99905;1365;61443;-79
2021/12/14 07:43:35;;;;;;;;;;;;;;;22.00;32.22;101736.88;100284;1363;61364;-80
2021/12/14 07:46:38;;;;;;;;;;;;;;;22.02;32.15;101739.24;100225;1365;61534;-79
2021/12/14 07:49:09;;;;;;;;;;;;;;;22.04;32.38;101742.90;99685;1369;73967;-81
2021/12/14 07:51:35;;;;;;;;;;;;;;;22.04;32.24;101747.52;99732;1369;74706;-80
2021/12/14 07:54:27;;;;;;;;;;;;;;;22.05;32.33;101748.40;99625;1368;61243;-81
2021/12/14 07:56:58;;;;;;;;;;;;;;;22.06;32.29;101751.21;99523;1368;61256;-83
2021/12/14 07:59:35;;;;;;;;;;;;;;;22.04;32.37;101757.23;99722;1368;72945;-81
2021/12/14 08:02:12;;;;;;;;;;;;;;;21.98;32.46;101762.77;99522;1369;76015;-80
2021/12/14 08:04:38;;;;;;;;;;;;;;;21.97;32.51;101761.25;101260;1365;60201;-81
2021/12/14 08:07:04;;;;;;;;;;;;;;;21.99;32.71;101765.95;99683;1365;61538;-80
2021/12/14 08:09:50;;;;;;;;;;;;;;;22.02;32.76;101767.02;100133;1363;61388;-80
2021/12/14 08:12:34;;;;;;;;;;;;;;;22.05;32.80;101768.08;101050;1362;75334;-81
2021/12/14 08:15:05;;;;;;;;;;;;;;;22.09;33.03;101769.45;100411;1357;61656;-81
2021/12/14 08:17:31;;;;;;;;;;;;;;;22.13;32.76;101768.38;101932;1356;60611;-81
2021/12/14 08:19:58;;;;;;;;;;;;;;;22.15;32.84;101773.80;101845;1361;59994;-82
2021/12/14 08:22:27;;;;;;;;;;;;;;;22.17;32.86;101778.54;101798;1360;59268;-81
2021/12/14 08:24:53;;;;;;;;;;;;;;;22.19;32.84;101784.86;101983;1353;61534;-81
2021/12/14 08:27:20;;;;;;;;;;;;;;;22.21;33.18;101786.70;102267;1351;59654;-81
2021/12/14 08:29:48;;;;;;;;;;;;;;;22.22;33.34;101783.23;102083;1356;59102;-80
2021/12/14 08:32:14;;;;;;;;;;;;;;;22.24;33.27;101788.48;102252;1356;74176;-81
2021/12/14 08:34:40;;;;;;;;;;;;;;;22.26;33.40;101788.32;102399;1353;59285;-81
2021/12/14 08:37:09;;;;;;;;;;;;;;;22.30;33.47;101782.94;102629;1352;60137;-81
2021/12/14 08:39:47;;;;;;;;;;;;;;;22.32;33.50;101784.42;102420;1344;71582;-81
2021/12/14 08:42:23;;;;;;;;;;;;;;;22.34;33.47;101788.40;101633;1347;75984;-81
2021/12/14 08:44:52;;;;;;;;;;;;;;;22.33;33.47;101786.14;101395;1347;61113;-80
2021/12/14 08:47:39;;;;;;;;;;;;;;;22.32;33.36;101786.55;102048;1350;61801;-81
2021/12/14 08:50:06;;;;;;;;;;;;;;;22.30;33.21;101783.99;101338;1348;73946;-81
2021/12/14 08:52:33;;;;;;;;;;;;;;;22.27;33.14;101784.67;101989;1350;74583;-80
2021/12/14 08:55:25;;;;;;;;;;;;;;;22.21;33.20;101779.52;101033;1349;61378;-80
2021/12/14 08:57:51;;;;;;;;;;;;;;;22.07;33.00;101775.13;100746;1354;63291;-80
2021/12/14 09:00:21;;;;;;;;;;;;;;;21.97;32.72;101772.15;100546;1356;61443;-80
2021/12/14 09:02:48;;;;;;;;;;;;;;;21.85;32.61;101768.58;100450;1356;74836;-80
2021/12/14 09:05:16;;;;;;;;;;;;;;;21.74;32.64;101761.31;102251;1356;60082;-80
2021/12/14 09:08:08;;;;;;;;;;;;;;;21.69;32.76;101760.36;100949;1356;60413;-81
2021/12/14 09:10:34;;;;;;;;;;;;;;;21.66;32.73;101753.77;100192;1362;73785;-82
2021/12/14 09:13:01;;;;;;;;;;;;;;;21.64;32.62;101747.65;100291;1362;61541;-81
2021/12/14 09:15:34;;;;;;;;;;;;;;;21.61;32.73;101749.19;100137;1365;61516;-80
2021/12/14 09:18:07;;;;;;;;;;;;;;;21.58;32.62;101745.08;100284;1363;61283;-82
2021/12/14 09:20:35;;;;;;;;;;;;;;;21.55;32.63;101743.61;100129;1361;61387;-81
2021/12/14 09:23:12;;;;;;;;;;;;;;;21.52;32.63;101743.08;100063;1365;74894;-82
2021/12/14 09:25:41;;;;;;;;;;;;;;;21.51;32.49;101733.65;100324;1366;61241;-82
2021/12/14 09:28:07;;;;;;;;;;;;;;;21.54;32.44;101735.80;100250;1363;61319;-79
2021/12/14 09:30:39;;;;;;;;;;;;;;;21.56;32.38;101738.74;100108;1362;61351;-80
2021/12/14 09:33:08;;;;;;;;;;;;;;;21.59;32.44;101733.20;100698;1363;74756;-80
2021/12/14 09:35:35;;;;;;;;;;;;;;;21.62;32.18;101735.50;100814;1353;61064;-80
2021/12/14 09:38:05;;;;;;;;;;;;;;;21.66;32.33;101735.69;101004;1354;61425;-81
2021/12/14 09:40:33;;;;;;;;;;;;;;;21.69;32.11;101733.17;100998;1353;71973;-82
2021/12/14 09:43:07;;;;;;;;;;;;;;;21.73;32.10;101733.81;100979;1354;75292;-81
2021/12/14 09:45:37;;;;;;;;;;;;;;;21.75;32.09;101727.73;101337;1354;60074;-81
2021/12/14 09:48:03;;;;;;;;;;;;;;;21.80;31.98;101724.46;101071;1353;61414;-81
2021/12/14 09:50:30;;;;;;;;;;;;;;;21.83;32.11;101723.73;101102;1350;60388;-83
2021/12/14 09:53:00;;;;;;;;;;;;;;;21.86;32.02;101720.87;102471;1350;74885;-82
2021/12/14 09:55:27;;;;;;;;;;;;;;;21.84;31.97;101718.12;102592;1349;60590;-81
2021/12/14 09:57:54;;;;;;;;;;;;;;;21.73;31.84;101718.19;102743;1345;60539;-82
2021/12/14 10:00:21;;;;;;;;;;;;;;;21.67;32.15;101715.54;102549;1350;72749;-82
2021/12/14 10:02:48;;;;;;;;;;;;;;;21.61;32.07;101711.41;102711;1348;74910;-82
2021/12/14 10:05:34;;;;;;;;;;;;;;;21.53;32.09;101707.56;102621;1348;59551;-81
2021/12/14 10:07:59;;;;;;;;;;;;;;;21.49;32.08;101707.05;102557;1348;60565;-81
2021/12/14 10:10:25;;;;;;;;;;;;;;;21.49;32.21;101706.53;102599;1353;59255;-81
2021/12/14 10:12:51;;;;;;;;;;;;;;;21.52;32.06;101710.48;102662;1350;60315;-81
2021/12/14 10:15:21;;;;;;;;;;;;;;;21.54;31.90;101707.48;102614;1349;59088;-81
2021/12/14 10:17:47;;;;;;;;;;;;;;;21.58;31.93;101708.89;102775;1350;61014;-82
2021/12/14 10:20:15;;;;;;;;;;;;;;;21.58;31.74;101708.71;102207;1346;60409;-82
2021/12/14 10:22:42;;;;;;;;;;;;;;;21.56;31.67;101710.27;101170;1350;75745;-81
2021/12/14 10:25:14;;;;;;;;;;;;;;;21.55;31.64;101706.39;101276;1350;61336;-81
2021/12/14 10:27:42;;;;;;;;;;;;;;;21.56;31.85;101705.45;101374;1350;61309;-81
2021/12/14 10:30:12;;;;;;;;;;;;;;;21.58;32.05;101704.05;101308;1350;72663;-83
2021/12/14 10:32:38;;;;;;;;;;;;;;;21.60;31.92;101703.17;101346;1350;74848;-80
2021/12/14 10:35:10;;;;;;;;;;;;;;;21.59;32.08;101705.77;101365;1349;61377;-82
2021/12/14 10:38:07;;;;;;;;;;;;;;;21.56;31.88;101711.84;101400;1347;61183;-82
2021/12/14 10:43:31;;;;;;;;;;;;;;;21.48;32.50;101710.52;101348;1348;74643;-81
2021/12/14 10:45:58;;;;;;;;;;;;;;;21.44;32.22;101709.16;101421;1347;61374;-81
2021/12/14 10:48:27;;;;;;;;;;;;;;;21.31;32.47;101716.70;101436;1347;61434;-81
2021/12/14 10:50:53;;;;;;;;;;;;;;;21.24;32.38;101708.86;101076;1348;73854;-81
2021/12/14 10:53:21;;;;;;;;;;;;;;;21.21;32.43;101712.79;101003;1349;61322;-80
2021/12/14 10:55:54;;;;;;;;;;;;;;;21.12;32.41;101710.30;100932;1349;61332;-81
2021/12/14 10:58:19;;;;;;;;;;;;;;;21.06;32.26;101713.14;102634;1348;61882;-82
2021/12/14 11:00:50;;;;;;;;;;;;;;;21.00;32.41;101714.14;102503;1348;60262;-80
2021/12/14 11:03:18;;;;;;;;;;;;;;;21.02;32.64;101710.45;102644;1347;75507;-81
2021/12/14 11:05:45;;;;;;;;;;;;;;;21.06;32.56;101711.99;102811;1348;59100;-81
2021/12/14 11:08:33;;;;;;;;;;;;;;;21.05;32.72;101709.38;102586;1348;60582;-81
2021/12/14 11:10:58;;;;;;;;;;;;;;;21.08;32.69;101706.56;101852;1358;73774;-81
2021/12/14 11:13:23;;;;;;;;;;;;;;;21.11;32.62;101703.51;102793;1351;59373;-82
2021/12/14 11:15:49;;;;;;;;;;;;;;;21.17;32.67;101697.12;102683;1350;59708;-82
2021/12/14 11:18:16;;;;;;;;;;;;;;;21.19;32.77;101699.10;101309;1349;61447;-83
2021/12/14 11:20:51;;;;;;;;;;;;;;;21.20;32.74;101703.90;101214;1348;61375;-82
2021/12/14 11:23:18;;;;;;;;;;;;;;;21.17;32.64;101703.94;101232;1349;73931;-82
2021/12/14 11:25:46;;;;;;;;;;;;;;;21.11;32.35;101697.79;101417;1347;61331;-82
2021/12/14 11:28:13;;;;;;;;;;;;;;;21.06;32.36;101695.91;102064;1347;60389;-82
2021/12/14 11:30:45;;;;;;;;;;;;;;;21.00;32.18;101696.64;101791;1348;72822;-81
2021/12/14 11:33:12;;;;;;;;;;;;;;;20.96;32.31;101693.63;101738;1349;75079;-81
2021/12/14 11:35:53;;;;;;;;;;;;;;;20.92;32.25;101691.90;101885;1347;61360;-81
2021/12/14 11:38:29;;;;;;;;;;;;;;;20.88;32.21;101689.82;101634;1349;62560;-82
2021/12/14 11:40:58;;;;;;;;;;;;;;;20.81;31.98;101680.17;101722;1348;73160;-81
2021/12/14 11:43:24;;;;;;;;;;;;;;;20.78;32.05;101683.54;101182;1348;73763;-81
2021/12/14 11:46:04;;;;;;;;;;;;;;;20.76;32.01;101684.88;101249;1349;61321;-81
2021/12/14 11:48:31;;;;;;;;;;;;;;;20.75;32.00;101681.39;101836;1349;60506;-80
2021/12/14 11:50:57;;;;;;;;;;;;;;;20.74;31.94;101681.75;102538;1348;73860;-81
2021/12/14 11:53:22;;;;;;;;;;;;;;;20.76;32.03;101677.59;102556;1350;59483;-80
2021/12/14 11:55:52;;;;;;;;;;;;;;;20.71;31.85;101679.27;102300;1350;59877;-80
2021/12/14 11:58:17;;;;;;;;;;;;;;;20.66;31.91;101678.11;102507;1350;61023;-81
2021/12/14 12:00:45;;;;;;;;;;;;;;;20.46;31.75;101677.59;102443;1350;59628;-80
2021/12/14 12:03:25;;;;;;;;;;;;;;;20.35;31.95;101681.21;102501;1347;75115;-81
2021/12/14 12:06:01;;;;;;;;;;;;;;;20.36;31.78;101681.70;102508;1347;61643;-80
2021/12/14 12:11:11;;;;;;;;;;;;;;;20.32;31.77;101682.98;102399;1348;72683;-81
2021/12/14 12:13:38;;;;;;;;;;;;;;;20.31;31.80;101679.66;102548;1344;59509;-82
2021/12/14 12:16:10;;;;;;;;;;;;;;;20.30;31.82;101680.27;102565;1350;59373;-81
2021/12/14 12:18:36;;;;;;;;;;;;;;;20.30;31.88;101679.21;102562;1349;60705;-81
2021/12/14 12:21:01;;;;;;;;;;;;;;;20.31;31.92;101678.23;102525;1350;59554;-80
2021/12/14 12:23:28;;;;;;;;;;;;;;;20.31;31.79;101669.81;102603;1352;59285;-81
2021/12/14 12:25:58;;;;;;;;;;;;;;;20.35;31.90;101670.69;102647;1348;60323;-80
2021/12/14 12:28:27;;;;;;;;;;;;;;;20.40;31.99;101670.77;102788;1350;60578;-80
2021/12/14 12:30:53;;;;;;;;;;;;;;;20.42;32.17;101670.65;102743;1343;72568;-80
2021/12/14 12:33:30;;;;;;;;;;;;;;;20.41;31.94;101673.02;102625;1350;59558;-81
2021/12/14 12:36:04;;;;;;;;;;;;;;;20.42;32.27;101670.31;102609;1349;60047;-82
2021/12/14 12:38:48;;;;;;;;;;;;;;;20.45;32.20;101667.81;102535;1348;60555;-81
2021/12/14 12:41:36;;;;;;;;;;;;;;;20.45;32.36;101667.27;101373;1347;74315;-81
2021/12/14 12:44:05;;;;;;;;;;;;;;;20.45;32.18;101669.43;101151;1347;75792;-82
2021/12/14 12:46:51;;;;;;;;;;;;;;;20.44;32.15;101667.68;101288;1347;61555;-81
2021/12/14 12:49:36;;;;;;;;;;;;;;;20.38;32.17;101671.54;101319;1350;61346;-82
2021/12/14 12:52:30;;;;;;;;;;;;;;;20.34;32.06;101669.81;101257;1348;72695;-82
2021/12/14 12:55:12;;;;;;;;;;;;;;;20.36;32.15;101671.87;102633;1350;75957;-81
2021/12/14 12:58:09;;;;;;;;;;;;;;;20.35;32.16;101674.08;102588;1349;59184;-81
2021/12/14 13:00:37;;;;;;;;;;;;;;;20.29;32.10;101673.52;102192;1357;61110;-82
2021/12/14 13:03:08;;;;;;;;;;;;;;;20.25;31.98;101679.78;102221;1357;74433;-83
2021/12/14 13:05:44;;;;;;;;;;;;;;;20.22;32.00;101677.27;101532;1354;74496;-82
2021/12/14 13:08:28;;;;;;;;;;;;;;;20.20;32.06;101676.14;102169;1355;59454;-82
2021/12/14 13:10:56;;;;;;;;;;;;;;;20.15;32.15;101674.42;102219;1355;60060;-82
2021/12/14 13:13:22;;;;;;;;;;;;;;;20.10;32.19;101670.39;102236;1356;72697;-81
2021/12/14 13:15:58;;;;;;;;;;;;;;;20.09;32.38;101672.59;101587;1356;61509;-82
2021/12/14 13:18:26;;;;;;;;;;;;;;;20.13;32.52;101669.73;101349;1356;61395;-81
2021/12/14 13:21:13;;;;;;;;;;;;;;;20.17;32.53;101668.23;101318;1361;61453;-80
2021/12/14 13:23:59;;;;;;;;;;;;;;;;;;;;;
2021/12/14 13:27:05;;;;;;;;;;;;;;;;;;;;;
2021/12/14 13:29:54;;;;;;;;;;;;;;;20.25;32.43;101671.89;101904;1353;61344;-82
2021/12/14 13:32:25;;;;;;;;;;;;;;;20.23;32.58;101673.25;101327;1357;61338;-82
2021/12/14 13:35:02;;;;;;;;;;;;;;;20.21;32.57;101680.02;101301;1357;72520;-83
2021/12/14 13:37:37;;;;;;;;;;;;;;;20.18;32.57;101676.57;101471;1350;74995;-82
2021/12/14 13:40:38;;;;;;;;;;;;;;;20.16;32.81;101679.20;101586;1353;61353;-82
2021/12/14 13:43:41;;;;;;;;;;;;;;;20.13;32.52;101672.91;101759;1354;61960;-82
2021/12/14 13:46:12;;;;;;;;;;;;;;;20.10;32.65;101673.26;101319;1360;72702;-82
2021/12/14 13:48:45;;;;;;;;;;;;;;;20.03;32.59;101674.70;101318;1355;75345;-83
2021/12/14 13:51:14;;;;;;;;;;;;;;;19.91;32.46;101672.44;101294;1353;61326;-82
2021/12/14 13:53:40;;;;;;;;;;;;;;;19.77;32.51;101675.67;101235;1361;60027;-83
2021/12/14 13:56:19;;;;;;;;;;;;;;;19.70;32.63;101673.34;101266;1355;74245;-82
2021/12/14 13:58:45;;;;;;;;;;;;;;;19.69;32.59;101673.08;101391;1359;73783;-83
2021/12/14 14:01:37;;;;;;;;;;;;;;;19.68;32.61;101674.38;101288;1361;61388;-82
2021/12/14 14:04:04;;;;;;;;;;;;;;;19.68;32.62;101675.27;102138;1363;60449;-83
2021/12/14 14:06:31;;;;;;;;;;;;;;;19.64;32.64;101671.88;102194;1358;73416;-82
2021/12/14 14:09:01;;;;;;;;;;;;;;;19.63;32.70;101672.09;102306;1361;75409;-82
2021/12/14 14:11:47;;;;;;;;;;;;;;;19.66;32.74;101675.91;101325;1362;61413;-82
2021/12/14 14:14:42;;;;;;;;;;;;;;;19.67;32.72;101683.50;101328;1356;61460;-82
2021/12/14 14:17:47;;;;;;;;;;;;;;;;;;;;;
2021/12/14 14:21:07;;;;;;;;;;;;;;;;;;;;;
2021/12/14 14:28:18;;;;;;;;;;;;;;;19.73;32.47;101694.79;101151;1365;61421;-83
2021/12/14 14:31:05;;;;;;;;;;;;;;;19.74;32.60;101695.64;100458;1372;73101;-83
2021/12/14 14:34:15;;;;;;;;;;;;;;;;;;;;;
2021/12/14 14:37:28;;;;;;;;;;;;;;;;;;;;;
2021/12/14 14:41:19;;;;;;;;;;;;;;;19.80;32.37;101699.82;99513;1381;61540;-83
2021/12/14 14:44:25;;;;;;;;;;;;;;;;;;;;;
2021/12/14 14:47:31;;;;;;;;;;;;;;;19.90;32.42;101710.58;98766;1390;75475;-82
2021/12/14 14:50:27;;;;;;;;;;;;;;;19.95;32.50;101716.23;99072;1387;61282;-83
2021/12/14 14:56:41;;;;;;;;;;;;;;;20.04;32.54;101723.05;98414;1394;71828;-83
2021/12/14 14:59:49;;;;;;;;;;;;;;;20.07;32.57;101720.56;98620;1390;74751;-83
2021/12/14 15:03:08;;;;;;;;;;;;;;;;;;;;;
2021/12/14 15:06:17;;;;;;;;;;;;;;;20.16;32.59;101720.15;98698;1389;61380;-82
2021/12/14 15:09:24;;;;;;;;;;;;;;;20.18;32.61;101718.94;94893;1394;5543638;-82
2021/12/14 15:12:40;;;;;;;;;;;;;;;;;;;;;
2021/12/14 15:16:06;;;;;;;;;;;;;;;;;;;;;
2021/12/14 15:19:31;;;;;;;;;;;;;;;;;;;;;
2021/12/14 15:23:25;;;;;;;;;;;;;;;20.30;32.49;101730.11;97220;1407;74365;-82
2021/12/14 15:26:27;;;;;;;;;;;;;;;20.33;32.63;101732.31;97157;1413;73655;-83
2021/12/14 15:29:21;;;;;;;;;;;;;;;;;;;;;
2021/12/14 15:32:51;;;;;;;;;;;;;;;20.36;32.62;101735.71;97083;1413;61267;-83